Time;durP1;ratioP1;P1;durP2;ratioP2;P2;SDS_P1;SDS_P2;PMS_P1;PMS_P2;Temp;Humidity;BMP_temperature;BMP_pressure;BME280_temperature;BME280_humidity;BME280_pressure;Samples;Min_cycle;Max_cycle;Signal;HPM_P1;HPM_P2
2022/12/04 00:01:18;;;;;;;14.05;8.25;;;;;;;-4.40;83.27;102286.48;1744439;82;21079;-37
2022/12/04 00:03:45;;;;;;;18.20;8.58;;;;;;;-4.45;83.12;102286.44;1744499;82;21063;-38
2022/12/04 00:06:15;;;;;;;17.37;7.78;;;;;;;-4.42;83.28;102291.81;1744743;82;21052;-44
2022/12/04 00:08:42;;;;;;;16.10;8.03;;;;;;;-4.46;83.24;102287.20;1744681;82;21491;-43
2022/12/04 00:11:09;;;;;;;16.50;8.70;;;;;;;-4.46;83.36;102298.70;1744679;82;21581;-37
2022/12/04 00:13:37;;;;;;;15.90;7.67;;;;;;;-4.41;83.40;102297.44;1744461;81;21119;-44
2022/12/04 00:16:05;;;;;;;17.60;9.15;;;;;;;-4.38;83.22;102293.90;1744468;82;21067;-44
2022/12/04 00:18:32;;;;;;;15.68;8.43;;;;;;;-4.36;83.15;102299.14;1744394;82;21048;-45
2022/12/04 00:20:59;;;;;;;18.75;8.08;;;;;;;-4.34;83.00;102304.04;1744463;82;21052;-45
2022/12/04 00:23:25;;;;;;;15.63;8.50;;;;;;;-4.33;82.97;102298.16;1715282;82;22272;-44
2022/12/04 00:25:54;;;;;;;17.80;8.70;;;;;;;-4.31;82.93;102298.80;1744382;82;21559;-45
2022/12/04 00:28:21;;;;;;;26.35;9.20;;;;;;;-4.30;82.78;102296.77;1715685;82;21063;-44
2022/12/04 00:30:47;;;;;;;17.85;8.90;;;;;;;-4.27;82.82;102300.00;1744623;82;21036;-38
2022/12/04 00:33:14;;;;;;;11.35;7.70;;;;;;;-4.26;82.76;102300.51;1744398;82;21064;-41
2022/12/04 00:35:40;;;;;;;15.00;8.05;;;;;;;-4.24;82.65;102295.52;1744458;82;21594;-38
2022/12/04 00:38:07;;;;;;;20.60;9.73;;;;;;;-4.24;82.58;102292.59;1744355;82;21093;-39
2022/12/04 00:40:34;;;;;;;18.70;8.85;;;;;;;-4.22;82.54;102291.47;1744546;82;21056;-39
2022/12/04 00:43:01;;;;;;;18.55;8.38;;;;;;;-4.24;82.27;102294.25;1744411;82;21127;-43
2022/12/04 00:45:27;;;;;;;14.03;6.95;;;;;;;-4.26;82.33;102295.78;1744710;82;21055;-44
2022/12/04 00:47:54;;;;;;;14.18;7.50;;;;;;;-4.28;82.42;102299.48;1744507;82;21112;-43
2022/12/04 00:50:22;;;;;;;18.90;8.60;;;;;;;-4.30;82.34;102298.42;1744770;81;21551;-45
2022/12/04 00:52:48;;;;;;;24.85;8.63;;;;;;;-4.30;82.31;102298.42;1744567;82;21586;-38
2022/12/04 00:55:15;;;;;;;12.82;7.72;;;;;;;-4.33;82.32;102304.17;1744450;82;21040;-38
2022/12/04 00:57:41;;;;;;;15.10;8.28;;;;;;;-4.33;82.26;102306.72;1744535;82;21076;-43
2022/12/04 01:00:09;;;;;;;15.23;8.43;;;;;;;-4.38;82.19;102301.56;1744583;82;21044;-45
2022/12/04 01:02:36;;;;;;;15.05;8.63;;;;;;;-4.38;82.41;102299.02;1744417;82;21154;-44
2022/12/04 01:05:04;;;;;;;13.50;8.00;;;;;;;-4.34;82.54;102304.94;1744527;82;21309;-38
2022/12/04 01:07:31;;;;;;;15.28;7.70;;;;;;;-4.32;82.40;102297.02;1744508;82;21116;-44
2022/12/04 01:09:58;;;;;;;14.47;7.80;;;;;;;-4.34;82.27;102302.77;1744496;82;21036;-38
2022/12/04 01:12:26;;;;;;;17.50;7.60;;;;;;;-4.35;82.36;102300.94;1744226;81;21619;-44
2022/12/04 01:14:52;;;;;;;16.57;9.03;;;;;;;-4.34;82.47;102302.77;1744711;82;21004;-45
2022/12/04 01:17:19;;;;;;;18.07;8.88;;;;;;;-4.33;82.62;102304.17;1744366;82;21080;-45
2022/12/04 01:19:45;;;;;;;14.50;8.13;;;;;;;-4.32;82.50;102303.41;1744435;82;21055;-38
2022/12/04 01:22:12;;;;;;;21.55;8.98;;;;;;;-4.32;82.32;102296.12;1744482;81;21023;-38
2022/12/04 01:24:39;;;;;;;15.70;7.83;;;;;;;-4.36;82.19;102298.77;1744539;82;21009;-38
2022/12/04 01:27:05;;;;;;;14.87;7.67;;;;;;;-4.39;82.18;102302.71;1744425;82;21092;-45
2022/12/04 01:29:32;;;;;;;16.20;7.95;;;;;;;-4.41;82.29;102294.88;1744658;82;21008;-45
2022/12/04 01:31:58;;;;;;;16.87;8.38;;;;;;;-4.46;82.25;102292.31;1744373;82;21665;-44
2022/12/04 01:34:25;;;;;;;15.28;8.08;;;;;;;-4.47;82.45;102284.10;1744626;82;21096;-38
2022/12/04 01:36:51;;;;;;;15.95;8.40;;;;;;;-4.44;82.64;102293.34;1744548;81;21636;-38
2022/12/04 01:39:18;;;;;;;13.60;8.35;;;;;;;-4.44;82.52;102292.06;1744252;82;21096;-39
2022/12/04 01:41:45;;;;;;;15.28;8.55;;;;;;;-4.45;82.38;102290.27;1744589;82;21020;-40
2022/12/04 01:44:19;;;;;;;18.70;7.67;;;;;;;-4.48;82.39;102293.81;1744375;82;21103;-38
2022/12/04 01:46:52;;;;;;;16.12;7.30;;;;;;;-4.50;82.51;102296.62;1744544;82;21123;-44
2022/12/04 01:49:24;;;;;;;15.72;7.80;;;;;;;-4.52;82.60;102291.75;1744681;82;21064;-39
2022/12/04 01:51:55;;;;;;;18.60;8.98;;;;;;;-4.53;82.61;102283.92;1743775;82;21080;-43
2022/12/04 01:54:27;;;;;;;19.57;8.90;;;;;;;-4.56;82.71;102288.00;1744569;82;21487;-43
2022/12/04 04:25:30;;;;;;;19.50;7.62;;;;;;;-6.20;86.53;102348.03;1752955;82;21041;-38
2022/12/04 04:27:57;;;;;;;21.20;7.70;;;;;;;-6.20;86.54;102344.59;1752858;82;21092;-44
2022/12/04 04:30:24;;;;;;;14.45;7.33;;;;;;;-6.20;86.52;102345.87;1753065;82;21330;-44
2022/12/04 04:33:14;;;;;;;15.23;6.80;;;;;;;-6.22;86.46;102349.52;1752675;82;21107;-43
2022/12/04 04:35:54;;;;;;;14.65;7.33;;;;;;;-6.22;86.40;102349.89;1753287;81;21676;-38
2022/12/04 04:38:28;;;;;;;12.55;6.90;;;;;;;-6.23;86.46;102347.72;1752808;82;21084;-44
2022/12/04 04:41:04;;;;;;;19.80;7.17;;;;;;;-6.21;86.46;102342.77;1753273;82;20988;-45
2022/12/04 04:43:55;;;;;;;14.07;7.10;;;;;;;-6.18;86.29;102350.34;1752843;82;21084;-38
2022/12/04 04:46:29;;;;;;;16.17;7.03;;;;;;;-6.17;86.21;102349.59;1753040;82;21068;-39
2022/12/04 04:48:59;;;;;;;12.15;7.10;;;;;;;-6.19;85.96;102343.45;1752845;82;21045;-45
2022/12/04 04:51:27;;;;;;;16.95;6.70;;;;;;;-6.21;85.81;102345.31;1753071;82;21033;-39
2022/12/04 04:53:55;;;;;;;14.68;6.87;;;;;;;-6.24;85.79;102348.47;1752727;82;21044;-44
2022/12/04 04:56:22;;;;;;;18.57;9.15;;;;;;;-6.23;85.75;102348.09;1752890;82;21646;-39
2022/12/04 04:58:49;;;;;;;15.60;6.95;;;;;;;-6.26;85.50;102347.77;1758733;80;21115;-46
2022/12/04 05:01:18;;;;;;;21.17;7.12;;;;;;;-6.29;85.56;102343.28;1751508;82;21080;-40
2022/12/04 05:03:44;;;;;;;19.23;6.65;;;;;;;-6.28;85.58;102350.17;1751197;82;21143;-39
2022/12/04 05:06:11;;;;;;;14.03;6.53;;;;;;;-6.26;85.71;102347.77;1689526;85;21097;-39
2022/12/04 05:08:38;;;;;;;11.63;6.15;;;;;;;-6.24;85.76;102354.84;1710538;84;21164;-40
2022/12/04 05:11:05;;;;;;;12.05;6.37;;;;;;;-6.20;85.66;102358.61;1710911;84;21701;-45
2022/12/04 05:13:31;;;;;;;13.68;7.65;;;;;;;-6.20;85.44;102359.88;1700406;84;21117;-39
2022/12/04 05:16:00;;;;;;;18.90;6.72;;;;;;;-6.20;85.23;102353.13;1676894;85;21070;-39
2022/12/04 05:18:27;;;;;;;12.73;6.22;;;;;;;-6.23;85.04;102349.36;1742837;82;21552;-43
2022/12/04 05:20:53;;;;;;;16.02;6.67;;;;;;;-6.25;84.92;102349.22;1743176;82;21017;-43
2022/12/04 05:23:20;;;;;;;13.58;7.35;;;;;;;-6.24;84.89;102349.74;1742884;82;21116;-45
2022/12/04 05:25:47;;;;;;;17.67;7.28;;;;;;;-6.25;84.74;102354.70;1742796;82;21058;-45
2022/12/04 05:28:13;;;;;;;13.62;6.72;;;;;;;-6.26;84.71;102352.53;1676285;85;21743;-39
2022/12/04 05:30:40;;;;;;;15.78;6.20;;;;;;;-6.24;84.62;102361.59;1676704;85;21010;-39
2022/12/04 05:33:09;;;;;;;13.58;6.42;;;;;;;-6.24;84.58;102364.14;1742404;82;21101;-45
2022/12/04 05:35:35;;;;;;;17.98;6.55;;;;;;;-6.23;84.40;102373.58;1742667;82;21520;-46
2022/12/04 05:38:02;;;;;;;15.03;6.10;;;;;;;-6.22;84.29;102380.47;1676295;85;21687;-45
2022/12/04 05:40:28;;;;;;;12.70;6.75;;;;;;;-6.22;84.18;102377.91;1676488;85;21672;-38
2022/12/04 05:42:55;;;;;;;11.55;5.90;;;;;;;-6.22;83.84;102376.64;1676271;85;21787;-45
2022/12/04 05:45:21;;;;;;;15.58;6.55;;;;;;;-6.22;83.72;102383.02;1651443;85;21045;-39
2022/12/04 05:47:48;;;;;;;13.05;6.28;;;;;;;-6.23;83.53;102379.56;1676217;85;21090;-38
2022/12/04 05:50:14;;;;;;;11.33;5.83;;;;;;;-6.27;83.20;102382.92;1676597;85;21505;-45
2022/12/04 05:52:40;;;;;;;11.83;5.55;;;;;;;-6.31;82.96;102388.11;1676126;85;21176;-43
2022/12/04 05:55:08;;;;;;;13.50;7.40;;;;;;;-6.32;83.06;102387.58;1742660;82;21030;-44
2022/12/04 05:57:35;;;;;;;11.70;6.03;;;;;;;-6.32;82.83;102379.01;1742415;82;21090;-38
2022/12/04 06:00:01;;;;;;;15.85;6.47;;;;;;;-6.31;82.80;102385.94;1742682;82;21006;-44
2022/12/04 06:02:30;;;;;;;12.65;6.70;;;;;;;-6.30;82.70;102383.91;1740575;82;21117;-44
2022/12/04 06:04:57;;;;;;;12.55;6.10;;;;;;;-6.28;82.64;102382.02;1742472;82;21116;-44
2022/12/04 06:07:23;;;;;;;13.60;6.00;;;;;;;-6.23;82.48;102383.39;1676379;85;21058;-44
2022/12/04 06:09:50;;;;;;;11.05;5.55;;;;;;;-6.21;82.28;102388.63;1676503;85;21577;-45
2022/12/04 06:12:16;;;;;;;17.98;6.10;;;;;;;-6.20;82.18;102391.73;1742408;82;21097;-39
2022/12/04 06:14:43;;;;;;;13.43;6.03;;;;;;;-6.18;82.07;102398.77;1745829;82;21017;-45
2022/12/04 06:17:09;;;;;;;13.00;6.08;;;;;;;-6.13;81.87;102395.79;1681559;85;21062;-44
2022/12/04 06:19:36;;;;;;;11.20;6.15;;;;;;;-6.08;81.65;102404.42;1745798;82;21112;-38
2022/12/04 06:22:02;;;;;;;14.28;6.45;;;;;;;-6.04;81.65;102403.05;1681583;85;21101;-45
2022/12/04 06:24:29;;;;;;;13.98;5.90;;;;;;;-6.01;81.39;102400.45;1681460;85;21616;-38
2022/12/04 06:26:57;;;;;;;15.20;5.97;;;;;;;-5.96;81.32;102408.19;1681605;85;21093;-39
2022/12/04 06:29:24;;;;;;;13.50;5.33;;;;;;;-5.89;81.06;102408.38;1681573;85;21101;-44
2022/12/04 06:31:50;;;;;;;14.25;6.10;;;;;;;-5.85;80.78;102409.22;1681519;85;21691;-45
2022/12/04 06:34:17;;;;;;;21.10;6.67;;;;;;;-5.80;80.56;102404.55;1681675;85;21113;-39
2022/12/04 06:36:44;;;;;;;14.40;5.75;;;;;;;-5.78;80.22;102406.89;1681621;85;21599;-39
2022/12/04 06:39:11;;;;;;;11.85;4.78;;;;;;;-5.78;79.96;102409.06;1681581;85;21160;-39
2022/12/04 06:41:37;;;;;;;13.83;4.62;;;;;;;-5.74;79.89;102412.80;1681673;85;21097;-39
2022/12/04 06:44:04;;;;;;;11.80;5.53;;;;;;;-5.71;79.63;102416.56;1681564;85;21090;-39
2022/12/04 06:46:31;;;;;;;12.73;5.42;;;;;;;-5.71;79.21;102419.11;1681536;85;21065;-39
2022/12/04 06:48:59;;;;;;;11.95;6.12;;;;;;;-5.69;78.98;102420.53;1681852;85;21121;-40
2022/12/04 06:51:34;;;;;;;15.35;5.72;;;;;;;-5.66;78.91;102416.64;1681815;85;21500;-43
2022/12/04 06:54:01;;;;;;;11.75;5.35;;;;;;;-5.60;78.67;102415.45;1681634;85;21057;-37
2022/12/04 06:56:29;;;;;;;15.15;6.00;;;;;;;-5.57;78.35;102410.25;1681649;85;21057;-44
2022/12/04 06:58:58;;;;;;;13.70;5.80;;;;;;;-5.51;78.22;102411.23;1681637;85;21073;-45
2022/12/04 07:01:27;;;;;;;9.10;4.87;;;;;;;-5.45;77.98;102408.00;1745485;82;21098;-46
2022/12/04 07:03:53;;;;;;;10.32;4.42;;;;;;;-5.42;77.42;102410.48;1745673;82;21540;-38
2022/12/04 07:06:28;;;;;;;11.97;5.55;;;;;;;-5.40;77.04;102417.90;1716414;82;21022;-45
2022/12/04 07:08:58;;;;;;;11.97;4.80;;;;;;;-5.35;77.13;102419.63;1744524;82;21088;-39
2022/12/04 07:11:25;;;;;;;11.18;5.47;;;;;;;-5.27;76.89;102415.29;1745640;82;21108;-45
2022/12/04 07:13:53;;;;;;;12.55;5.42;;;;;;;-5.26;76.03;102417.98;1741141;82;21548;-39
2022/12/04 07:16:21;;;;;;;11.68;5.37;;;;;;;-5.28;75.95;102410.53;1674169;86;21049;-44
2022/12/04 07:18:52;;;;;;;11.50;5.12;;;;;;;-5.25;75.93;102413.77;1737343;82;21034;-45
2022/12/04 07:21:22;;;;;;;11.57;5.22;;;;;;;-5.17;75.68;102415.02;1737531;82;21026;-45
2022/12/04 07:23:55;;;;;;;13.28;4.75;;;;;;;-5.14;75.42;102414.44;1737174;82;21070;-47
2022/12/04 07:26:22;;;;;;;8.10;4.33;;;;;;;-5.12;74.86;102408.70;1737656;82;21006;-37
2022/12/04 07:28:48;;;;;;;12.15;5.22;;;;;;;-5.12;74.70;102401.42;1670788;84;21064;-38
2022/12/04 07:31:18;;;;;;;8.90;4.83;;;;;;;-5.14;73.95;102397.46;1675412;85;21076;-38
2022/12/04 07:33:44;;;;;;;10.78;5.30;;;;;;;-5.17;74.00;102400.98;1661607;85;21060;-39
2022/12/04 07:36:14;;;;;;;11.00;4.87;;;;;;;-5.17;73.98;102400.09;1662144;86;21602;-46
2022/12/04 07:38:40;;;;;;;10.80;4.80;;;;;;;-5.16;73.66;102391.32;1662012;85;21068;-40
2022/12/04 07:41:07;;;;;;;9.88;4.15;;;;;;;-5.16;73.79;102392.95;1661843;86;21068;-39
2022/12/04 07:43:34;;;;;;;8.68;4.67;;;;;;;-5.09;74.04;102395.36;1661742;85;21602;-44
2022/12/04 07:46:06;;;;;;;8.23;4.10;;;;;;;-5.06;73.54;102398.56;1662208;86;21522;-43
2022/12/04 07:48:33;;;;;;;8.98;4.35;;;;;;;-5.07;73.54;102390.39;1661796;85;21076;-44
2022/12/04 07:51:10;;;;;;;10.08;4.85;;;;;;;-5.11;73.70;102391.73;1661748;85;21483;-38
2022/12/04 07:53:37;;;;;;;8.78;4.30;;;;;;;-5.12;73.70;102397.60;1708700;84;21058;-46
2022/12/04 07:56:04;;;;;;;13.65;4.58;;;;;;;-5.13;73.88;102400.91;1709401;84;20997;-40
2022/12/04 07:58:31;;;;;;;8.80;4.60;;;;;;;-5.14;73.88;102394.02;1709082;84;21473;-40
2022/12/04 10:13:41;;;;;;;7.25;4.12;;;;;;;1.22;59.41;102289.77;1862141;77;22166;-45
2022/12/04 10:16:33;;;;;;;5.15;3.02;;;;;;;1.53;57.77;102285.02;1836944;78;21052;-45
2022/12/04 10:19:30;;;;;;;6.33;3.80;;;;;;;2.01;56.21;102276.17;1837157;78;21067;-40
2022/12/04 10:22:14;;;;;;;9.05;3.50;;;;;;;2.26;54.60;102271.31;1837064;78;21012;-38
2022/12/04 10:24:52;;;;;;;6.42;2.80;;;;;;;2.48;54.19;102269.72;1837209;78;21003;-45
2022/12/04 10:27:27;;;;;;;6.10;3.77;;;;;;;2.84;52.95;102271.14;1836845;78;21039;-46
2022/12/04 10:29:59;;;;;;;5.67;3.52;;;;;;;3.10;52.25;102273.66;1802905;79;21039;-39
2022/12/04 10:32:29;;;;;;;6.70;2.83;;;;;;;3.34;51.53;102268.19;1769998;80;21016;-38
2022/12/04 10:34:59;;;;;;;9.93;3.22;;;;;;;3.56;50.85;102272.56;1802951;79;21526;-38
2022/12/04 10:37:26;;;;;;;3.52;2.30;;;;;;;3.67;49.48;102260.27;1768666;81;21590;-45
2022/12/04 10:40:09;;;;;;;7.22;3.42;;;;;;;3.76;49.32;102256.90;1802980;79;21062;-44
2022/12/04 10:42:41;;;;;;;;;;;;;;;3.83;48.88;102253.89;1772274;81;21056;-39
2022/12/04 10:45:09;;;;;;;7.40;2.98;;;;;;;3.93;48.14;102252.70;1803338;79;20107;-44
2022/12/04 10:47:38;;;;;;;6.50;3.55;;;;;;;3.95;47.90;102245.94;1769759;79;21055;-44
2022/12/04 10:50:22;;;;;;;7.85;3.60;;;;;;;3.88;47.98;102245.95;1802910;79;21043;-38
2022/12/04 10:52:49;;;;;;;5.78;3.12;;;;;;;3.97;47.85;102250.39;1802918;79;21015;-44
2022/12/04 10:55:31;;;;;;;6.85;3.17;;;;;;;4.16;47.90;102254.91;1803270;79;21044;-37
2022/12/04 10:57:57;;;;;;;6.03;3.02;;;;;;;4.31;47.46;102238.06;1803167;79;21586;-44
2022/12/04 11:00:33;;;;;;;5.80;3.45;;;;;;;4.39;47.29;102241.95;1803175;79;21090;-43
2022/12/04 11:03:03;;;;;;;4.97;3.05;;;;;;;4.61;46.72;102237.97;1802978;79;21044;-45
2022/12/04 11:05:43;;;;;;;7.00;2.87;;;;;;;4.74;46.45;102238.70;1803302;79;21027;-44
2022/12/04 11:08:20;;;;;;;6.00;3.45;;;;;;;5.01;45.96;102239.31;1802344;79;21066;-44
2022/12/04 11:11:02;;;;;;;9.13;3.10;;;;;;;5.13;45.38;102230.39;1802952;79;21455;-39
2022/12/04 11:13:29;;;;;;;5.00;2.83;;;;;;;5.19;44.93;102219.92;1802884;79;21008;-45
2022/12/04 11:15:56;;;;;;;6.70;3.20;;;;;;;5.20;44.93;102220.41;1802552;79;21586;-45
2022/12/04 11:18:46;;;;;;;7.17;3.60;;;;;;;5.28;44.64;102213.93;1802427;79;21622;-40
2022/12/04 11:21:15;;;;;;;4.67;3.15;;;;;;;5.45;44.65;102219.07;1802443;79;21075;-38
2022/12/04 11:23:48;;;;;;;5.72;3.10;;;;;;;5.65;43.83;102218.80;1802547;79;21059;-43
2022/12/04 11:26:17;;;;;;;5.42;2.60;;;;;;;5.76;43.43;102220.23;1802125;79;21558;-39
2022/12/04 11:28:48;;;;;;;5.75;2.98;;;;;;;5.75;43.00;102217.16;1802528;79;21035;-46
2022/12/04 11:31:17;;;;;;;5.60;2.65;;;;;;;5.62;42.83;102226.02;1802245;79;21107;-44
2022/12/04 11:33:47;;;;;;;12.47;3.58;;;;;;;5.65;42.79;102227.48;1799684;79;21032;-45
2022/12/04 11:36:35;;;;;;;5.62;3.15;;;;;;;5.75;42.31;102224.55;1793668;80;21070;-46
2022/12/04 11:39:35;;;;;;;5.40;3.30;;;;;;;5.67;42.29;102221.06;1770212;81;21552;-46
2022/12/04 11:42:18;;;;;;;7.45;3.08;;;;;;;5.73;42.58;102222.25;1769245;81;21146;-40
2022/12/04 11:45:03;;;;;;;6.62;2.85;;;;;;;6.07;42.41;102227.45;1768797;81;21450;-40
2022/12/04 11:47:31;;;;;;;6.60;3.30;;;;;;;6.43;41.56;102217.03;1793875;80;21126;-39
2022/12/04 11:50:13;;;;;;;7.00;3.47;;;;;;;6.42;40.65;102219.16;1770459;81;21492;-39
2022/12/04 11:53:27;;;;;;;6.97;2.67;;;;;;;6.33;40.61;102214.42;1769494;81;21709;-40
2022/12/04 11:56:19;;;;;;;4.85;3.00;;;;;;;6.36;40.47;102211.06;1799365;80;21430;-40
2022/12/04 11:59:12;;;;;;;5.83;3.00;;;;;;;6.31;40.48;102213.85;1799894;80;21088;-40
2022/12/04 12:01:59;;;;;;;5.62;3.05;;;;;;;6.27;40.05;102208.94;1799169;80;21079;-39
2022/12/04 12:05:11;;;;;;;5.97;3.12;;;;;;;6.15;40.05;102207.05;1799393;80;21047;-39
2022/12/04 12:08:02;;;;;;;6.75;4.17;;;;;;;6.11;40.13;102211.20;1799185;80;21079;-46
2022/12/04 12:10:43;;;;;;;5.00;3.10;;;;;;;6.18;40.71;102208.89;1799507;80;21070;-45
2022/12/04 12:13:46;;;;;;;9.35;3.92;;;;;;;6.47;39.99;102204.66;1799092;80;21082;-41
2022/12/04 12:16:28;;;;;;;5.73;3.43;;;;;;;6.45;38.84;102211.52;1799204;80;21025;-40
2022/12/04 12:19:34;;;;;;;5.87;2.92;;;;;;;5.76;39.03;102210.73;1736457;82;21055;-43
2022/12/04 12:22:09;;;;;;;4.75;3.20;;;;;;;5.38;39.91;102204.89;1699002;84;21708;-39
2022/12/04 12:24:50;;;;;;;5.42;3.35;;;;;;;5.06;40.37;102209.32;1699292;84;21068;-39
2022/12/04 12:27:22;;;;;;;4.62;3.17;;;;;;;4.89;40.76;102207.95;1698240;84;21092;-45
2022/12/04 12:30:09;;;;;;;7.97;3.12;;;;;;;4.63;41.20;102212.60;1699297;84;21112;-40
2022/12/04 12:32:59;;;;;;;6.62;2.77;;;;;;;4.60;41.46;102203.37;1699193;84;21147;-39
2022/12/04 12:36:01;;;;;;;5.92;2.87;;;;;;;4.68;41.23;102203.78;1699164;84;21069;-40
2022/12/04 12:38:56;;;;;;;5.83;2.50;;;;;;;4.79;41.36;102209.14;1699474;84;21037;-39
2022/12/04 12:41:30;;;;;;;12.95;3.22;;;;;;;5.07;41.12;102208.91;1682133;84;21135;-45
2022/12/04 12:44:19;;;;;;;5.90;3.12;;;;;;;5.28;40.75;102210.45;1682534;85;21081;-44
2022/12/04 12:47:06;;;;;;;7.72;2.83;;;;;;;5.06;40.00;102208.43;1631514;88;21131;-39
2022/12/04 12:49:59;;;;;;;6.12;3.15;;;;;;;4.44;40.64;102213.30;1602407;88;21051;-44
2022/12/04 12:52:57;;;;;;;7.72;3.17;;;;;;;4.28;41.13;102219.73;1622276;87;21107;-45
2022/12/04 12:55:26;;;;;;;5.42;2.92;;;;;;;4.33;41.43;102223.88;1633553;87;21074;-39
2022/12/04 12:58:10;;;;;;;6.55;3.20;;;;;;;4.58;41.05;102225.75;1643470;87;21126;-39
2022/12/04 13:00:48;;;;;;;6.80;3.77;;;;;;;4.55;40.92;102215.19;1653169;87;21507;-45
2022/12/04 13:03:52;;;;;;;4.75;3.02;;;;;;;4.30;40.93;102216.84;1667643;86;21169;-46
2022/12/04 13:06:24;;;;;;;3.77;2.58;;;;;;;4.01;40.67;102222.97;1668881;86;21679;-44
2022/12/04 13:09:11;;;;;;;5.50;2.87;;;;;;;3.51;41.08;102229.98;1669235;86;21124;-44
2022/12/04 13:11:37;;;;;;;6.60;2.90;;;;;;;3.21;41.68;102225.17;1668352;85;21120;-41
2022/12/04 13:14:05;;;;;;;13.15;3.35;;;;;;;2.93;42.04;102221.30;1664696;86;21089;-46
2022/12/04 13:16:51;;;;;;;6.62;3.47;;;;;;;2.51;42.34;102220.83;1664716;86;21203;-46
2022/12/04 13:19:34;;;;;;;7.50;3.08;;;;;;;1.94;43.24;102226.23;1717553;83;21095;-39
2022/12/04 13:22:21;;;;;;;;;;;;;;;1.41;44.05;102227.84;1690865;84;21158;-39
2022/12/04 13:25:11;;;;;;;8.30;3.25;;;;;;;1.01;45.17;102234.13;1767561;81;20133;-45
2022/12/04 13:28:20;;;;;;;6.25;3.00;;;;;;;0.74;45.87;102237.85;1705378;84;21077;-39
2022/12/04 13:31:23;;;;;;;5.00;2.30;;;;;;;0.55;46.44;102246.77;1659181;86;21738;-40
2022/12/04 13:34:10;;;;;;;12.13;2.55;;;;;;;0.41;46.81;102245.80;1656502;85;21124;-46
2022/12/04 13:37:01;;;;;;;7.53;2.85;;;;;;;0.23;47.20;102254.34;1628769;87;21208;-46
2022/12/04 13:39:51;;;;;;;9.15;2.80;;;;;;;-0.05;47.42;102251.45;1586628;90;21605;-46
2022/12/04 13:42:23;;;;;;;6.03;2.75;;;;;;;-0.32;47.92;102245.16;1602040;89;21165;-46
2022/12/04 13:44:59;;;;;;;7.37;3.10;;;;;;;-0.55;48.44;102249.86;1629450;87;21076;-46
2022/12/04 13:47:30;;;;;;;5.20;2.67;;;;;;;-0.78;48.96;102251.07;1639654;87;21558;-39
2022/12/04 13:50:21;;;;;;;6.08;2.83;;;;;;;-0.95;49.44;102251.95;1632604;87;21120;-45
2022/12/04 13:52:48;;;;;;;4.58;2.95;;;;;;;-1.09;49.70;102243.19;1609717;89;21524;-45
2022/12/04 13:55:35;;;;;;;4.95;2.90;;;;;;;-1.25;50.21;102240.59;1612042;89;21040;-39
2022/12/04 13:58:12;;;;;;;7.72;2.55;;;;;;;-1.38;50.55;102244.77;1611926;89;21146;-39
2022/12/04 14:00:43;;;;;;;6.95;2.95;;;;;;;-1.55;50.89;102242.53;1610419;89;21079;-39
2022/12/04 14:03:34;;;;;;;5.72;2.80;;;;;;;-1.69;51.29;102245.66;1688878;85;21051;-44
2022/12/04 14:06:04;;;;;;;6.58;3.00;;;;;;;-1.81;51.83;102242.11;1731470;83;21731;-39
2022/12/04 14:08:39;;;;;;;4.30;2.35;;;;;;;-1.96;52.37;102250.37;1695466;84;21092;-39
2022/12/04 14:11:17;;;;;;;5.45;2.52;;;;;;;-2.03;52.86;102251.95;1725987;83;21019;-39
2022/12/04 14:13:53;;;;;;;6.80;2.70;;;;;;;-2.09;53.20;102250.52;1721421;82;21449;-44
2022/12/04 14:16:34;;;;;;;9.70;3.25;;;;;;;-2.21;53.31;102251.70;1751174;82;21056;-39
2022/12/04 14:19:01;;;;;;;6.03;2.67;;;;;;;-2.29;53.32;102253.64;1751227;82;21084;-38
2022/12/04 14:21:45;;;;;;;5.42;2.67;;;;;;;-2.38;53.48;102270.81;1768513;79;21123;-46
2022/12/04 16:40:23;;;;;;;6.97;2.98;;;;;;;-5.01;61.25;102287.57;1819102;79;26563;-39
2022/12/04 16:42:49;;;;;;;7.67;3.60;;;;;;;-5.04;61.15;102294.58;1791131;80;21001;-44
2022/12/04 16:45:31;;;;;;;7.03;2.83;;;;;;;-5.06;61.09;102297.34;1763754;81;21467;-45
2022/12/04 16:47:58;;;;;;;7.70;3.00;;;;;;;-5.07;61.02;102304.48;1763852;81;21040;-39
2022/12/04 16:50:26;;;;;;;7.20;2.87;;;;;;;-5.10;60.66;102308.05;1763800;81;20988;-46
2022/12/04 16:52:52;;;;;;;12.53;3.12;;;;;;;-5.13;60.56;102311.57;1763391;81;21392;-39
2022/12/04 16:55:27;;;;;;;8.40;3.30;;;;;;;-5.16;60.61;102313.47;1763887;81;21503;-39
2022/12/04 16:57:53;;;;;;;6.05;3.08;;;;;;;-5.18;60.60;102312.41;1756666;81;21527;-46
2022/12/04 17:00:21;;;;;;;3.75;2.08;;;;;;;-5.21;60.57;102312.13;1763593;81;21068;-43
2022/12/04 17:02:47;;;;;;;10.80;2.37;;;;;;;-5.22;60.63;102306.86;1763593;81;21017;-45
2022/12/04 17:05:21;;;;;;;7.62;3.08;;;;;;;-5.25;60.62;102311.69;1763427;81;21119;-39
2022/12/04 17:07:48;;;;;;;6.00;3.25;;;;;;;-5.26;60.66;102308.62;1763776;81;20989;-46
2022/12/04 17:10:15;;;;;;;6.87;2.58;;;;;;;-5.28;60.78;102314.83;1763693;81;21024;-45
2022/12/04 17:12:42;;;;;;;9.70;3.27;;;;;;;-5.27;60.61;102314.48;1763425;81;22710;-44
2022/12/04 17:15:10;;;;;;;16.23;2.67;;;;;;;-5.29;60.65;102307.03;1763449;81;21527;-39
2022/12/04 17:17:37;;;;;;;4.65;2.80;;;;;;;-5.33;60.76;102307.14;1763770;81;21005;-39
2022/12/04 17:20:07;;;;;;;10.82;3.17;;;;;;;-5.37;60.79;102306.31;1763379;81;21154;-39
2022/12/04 17:22:35;;;;;;;11.53;3.52;;;;;;;-5.40;60.91;102312.01;1734021;81;20989;-45
2022/12/04 17:25:01;;;;;;;10.15;3.83;;;;;;;-5.41;61.00;102316.98;1763366;81;21056;-39
2022/12/04 17:27:28;;;;;;;5.85;3.15;;;;;;;-5.41;61.09;102320.80;1763595;81;21044;-39
2022/12/04 17:29:55;;;;;;;6.25;3.08;;;;;;;-5.43;61.28;102332.14;1763419;81;21075;-45
2022/12/04 17:32:22;;;;;;;4.95;2.70;;;;;;;-5.44;61.41;102320.53;1763776;81;21027;-46
2022/12/04 17:34:50;;;;;;;9.35;3.08;;;;;;;-5.44;61.43;102322.70;1763319;81;21138;-45
2022/12/04 17:37:16;;;;;;;9.03;2.75;;;;;;;-5.47;61.39;102318.94;1735016;79;21033;-39
2022/12/04 17:39:43;;;;;;;8.98;3.10;;;;;;;-5.50;61.46;102319.56;1753496;79;21081;-45
2022/12/04 17:42:10;;;;;;;8.25;3.70;;;;;;;-5.52;61.46;102316.32;1748701;82;21072;-45
2022/12/04 17:44:37;;;;;;;6.15;2.90;;;;;;;-5.54;61.52;102312.73;1748772;82;21057;-45
2022/12/04 17:47:03;;;;;;;8.95;3.33;;;;;;;-5.57;61.48;102313.32;1684678;85;21049;-46
2022/12/04 17:49:30;;;;;;;9.98;3.47;;;;;;;-5.60;61.52;102309.22;1684132;84;21129;-39
2022/12/04 17:51:57;;;;;;;7.70;3.33;;;;;;;-5.62;61.70;102312.91;1748235;82;20995;-39
2022/12/04 17:54:24;;;;;;;16.42;3.77;;;;;;;-5.64;61.80;102317.31;1748405;82;21113;-45
2022/12/04 17:56:51;;;;;;;8.20;3.65;;;;;;;-5.67;61.96;102321.76;1748124;82;21042;-46
2022/12/04 17:59:17;;;;;;;7.35;3.30;;;;;;;-5.70;61.98;102322.72;1748268;82;21070;-45
2022/12/04 18:01:44;;;;;;;7.97;3.55;;;;;;;-5.71;61.93;102316.20;1748421;82;21532;-40
2022/12/04 18:04:10;;;;;;;14.18;3.35;;;;;;;-5.73;61.86;102313.89;1748213;82;21634;-46
2022/12/04 18:06:40;;;;;;;11.25;3.33;;;;;;;-5.76;61.96;102313.58;1684209;85;21022;-40
2022/12/04 18:09:08;;;;;;;6.62;3.30;;;;;;;-5.77;61.99;102318.16;1748254;82;21057;-46
2022/12/04 18:11:37;;;;;;;7.87;3.25;;;;;;;-5.80;62.07;102319.13;1748561;82;21507;-46
2022/12/04 18:14:07;;;;;;;7.80;3.40;;;;;;;-5.84;62.03;102328.15;1748289;82;21121;-39
2022/12/04 18:16:36;;;;;;;8.03;3.33;;;;;;;-5.88;62.12;102327.31;1748568;82;21485;-45
2022/12/04 18:19:03;;;;;;;5.55;2.87;;;;;;;-5.93;62.10;102326.89;1748161;82;21041;-45
2022/12/04 18:21:30;;;;;;;9.63;3.98;;;;;;;-5.93;62.15;102331.09;1684130;85;21512;-39
2022/12/04 18:23:59;;;;;;;7.83;3.77;;;;;;;-5.96;62.16;102334.26;1683794;84;21113;-45
2022/12/04 18:26:26;;;;;;;9.13;3.52;;;;;;;-5.97;62.18;102335.02;1684103;85;21034;-39
2022/12/04 18:28:54;;;;;;;9.73;3.12;;;;;;;-5.97;62.28;102331.19;1748157;82;22757;-39
2022/12/04 18:31:21;;;;;;;8.38;3.62;;;;;;;-5.98;62.25;102323.37;1684038;85;21064;-45
2022/12/04 18:33:48;;;;;;;6.25;3.17;;;;;;;-6.01;62.28;102319.27;1748398;82;21062;-39
2022/12/04 18:36:20;;;;;;;10.53;3.60;;;;;;;-6.03;62.38;102324.56;1748171;82;21033;-46
2022/12/04 18:38:53;;;;;;;8.28;3.33;;;;;;;-6.04;62.42;102324.94;1748263;82;21073;-45
2022/12/04 18:41:19;;;;;;;;;;;;;;;-6.04;62.49;102326.21;1754787;82;21544;-40
2022/12/04 18:43:46;;;;;;;8.50;3.95;;;;;;;-6.05;62.48;102324.42;1748389;82;20468;-39
2022/12/04 18:46:14;;;;;;;11.05;4.05;;;;;;;-6.04;62.48;102326.21;1684078;85;21026;-46